sensor_id;sensor_type;location;lat;lon;timestamp;temperature;humidity
66522;SHT31;53349;53.538;8.584;2023-02-17T00:01:20;8.49;88.78
66522;SHT31;53349;53.538;8.584;2023-02-17T00:03:48;8.50;88.82
66522;SHT31;53349;53.538;8.584;2023-02-17T00:06:15;8.53;88.84
66522;SHT31;53349;53.538;8.584;2023-02-17T00:08:42;8.54;88.85
66522;SHT31;53349;53.538;8.584;2023-02-17T00:11:15;8.50;88.86
66522;SHT31;53349;53.538;8.584;2023-02-17T00:13:41;8.53;88.84
66522;SHT31;53349;53.538;8.584;2023-02-17T00:16:17;8.54;88.88
66522;SHT31;53349;53.538;8.584;2023-02-17T00:18:50;8.57;88.84
66522;SHT31;53349;53.538;8.584;2023-02-17T00:21:18;8.56;88.87
66522;SHT31;53349;53.538;8.584;2023-02-17T00:23:46;8.56;88.91
66522;SHT31;53349;53.538;8.584;2023-02-17T00:26:13;8.57;88.92
66522;SHT31;53349;53.538;8.584;2023-02-17T00:28:40;8.59;88.92
66522;SHT31;53349;53.538;8.584;2023-02-17T00:31:13;8.59;88.93
66522;SHT31;53349;53.538;8.584;2023-02-17T00:33:39;8.60;88.92
66522;SHT31;53349;53.538;8.584;2023-02-17T00:36:06;8.61;88.92
66522;SHT31;53349;53.538;8.584;2023-02-17T00:38:34;8.61;88.89
66522;SHT31;53349;53.538;8.584;2023-02-17T00:41:00;8.64;88.91
66522;SHT31;53349;53.538;8.584;2023-02-17T00:43:30;8.64;88.91
66522;SHT31;53349;53.538;8.584;2023-02-17T00:45:56;8.60;88.87
66522;SHT31;53349;53.538;8.584;2023-02-17T00:48:22;8.61;88.93
66522;SHT31;53349;53.538;8.584;2023-02-17T00:50:48;8.60;88.93
66522;SHT31;53349;53.538;8.584;2023-02-17T00:53:14;8.64;88.89
66522;SHT31;53349;53.538;8.584;2023-02-17T00:55:39;8.60;88.92
66522;SHT31;53349;53.538;8.584;2023-02-17T00:58:06;8.64;88.91
66522;SHT31;53349;53.538;8.584;2023-02-17T01:00:31;8.61;88.94
66522;SHT31;53349;53.538;8.584;2023-02-17T01:02:57;8.60;88.87
66522;SHT31;53349;53.538;8.584;2023-02-17T01:05:23;8.60;88.93
66522;SHT31;53349;53.538;8.584;2023-02-17T01:07:48;8.61;88.93
66522;SHT31;53349;53.538;8.584;2023-02-17T01:10:14;8.59;88.89
66522;SHT31;53349;53.538;8.584;2023-02-17T01:12:41;8.59;88.96
66522;SHT31;53349;53.538;8.584;2023-02-17T01:15:07;8.61;88.98
66522;SHT31;53349;53.538;8.584;2023-02-17T01:17:33;8.60;88.92
66522;SHT31;53349;53.538;8.584;2023-02-17T01:19:59;8.60;88.97
66522;SHT31;53349;53.538;8.584;2023-02-17T01:22:24;8.60;89.00
66522;SHT31;53349;53.538;8.584;2023-02-17T01:24:53;8.61;89.00
66522;SHT31;53349;53.538;8.584;2023-02-17T01:27:18;8.65;89.03
66522;SHT31;53349;53.538;8.584;2023-02-17T01:29:46;8.65;89.06
66522;SHT31;53349;53.538;8.584;2023-02-17T01:32:12;8.67;89.08
66522;SHT31;53349;53.538;8.584;2023-02-17T01:34:38;8.64;89.09
66522;SHT31;53349;53.538;8.584;2023-02-17T01:37:03;8.65;89.05
66522;SHT31;53349;53.538;8.584;2023-02-17T01:39:29;8.64;89.07
66522;SHT31;53349;53.538;8.584;2023-02-17T01:41:55;8.64;89.08
66522;SHT31;53349;53.538;8.584;2023-02-17T01:44:24;8.65;89.10
66522;SHT31;53349;53.538;8.584;2023-02-17T01:46:52;8.70;89.13
66522;SHT31;53349;53.538;8.584;2023-02-17T01:49:36;8.77;89.17
66522;SHT31;53349;53.538;8.584;2023-02-17T01:52:24;8.81;89.15
66522;SHT31;53349;53.538;8.584;2023-02-17T01:54:59;8.80;89.12
66522;SHT31;53349;53.538;8.584;2023-02-17T01:57:29;8.81;89.12
66522;SHT31;53349;53.538;8.584;2023-02-17T01:59:57;8.81;89.09
66522;SHT31;53349;53.538;8.584;2023-02-17T02:02:24;8.78;89.14
66522;SHT31;53349;53.538;8.584;2023-02-17T02:04:53;8.83;89.10
66522;SHT31;53349;53.538;8.584;2023-02-17T02:07:26;8.81;89.07
66522;SHT31;53349;53.538;8.584;2023-02-17T02:09:53;8.84;89.07
66522;SHT31;53349;53.538;8.584;2023-02-17T02:12:29;8.83;89.05
66522;SHT31;53349;53.538;8.584;2023-02-17T02:14:58;8.83;89.00
66522;SHT31;53349;53.538;8.584;2023-02-17T02:23:21;8.75;88.86
66522;SHT31;53349;53.538;8.584;2023-02-17T02:26:22;8.75;88.87
66522;SHT31;53349;53.538;8.584;2023-02-17T02:34:57;8.85;88.91
66522;SHT31;53349;53.538;8.584;2023-02-17T02:37:29;8.91;88.92
66522;SHT31;53349;53.538;8.584;2023-02-17T02:39:59;8.94;88.83
66522;SHT31;53349;53.538;8.584;2023-02-17T02:42:27;8.94;88.83
66522;SHT31;53349;53.538;8.584;2023-02-17T02:44:53;8.97;88.77
66522;SHT31;53349;53.538;8.584;2023-02-17T02:47:45;8.97;88.72
66522;SHT31;53349;53.538;8.584;2023-02-17T02:53:27;8.94;88.61
66522;SHT31;53349;53.538;8.584;2023-02-17T02:58:53;8.92;88.54
66522;SHT31;53349;53.538;8.584;2023-02-17T03:04:10;8.95;88.53
66522;SHT31;53349;53.538;8.584;2023-02-17T03:06:42;8.98;88.54
66522;SHT31;53349;53.538;8.584;2023-02-17T03:09:23;8.98;88.47
66522;SHT31;53349;53.538;8.584;2023-02-17T03:11:49;9.01;88.49
66522;SHT31;53349;53.538;8.584;2023-02-17T03:14:19;9.04;88.42
66522;SHT31;53349;53.538;8.584;2023-02-17T03:16:46;9.10;88.41
66522;SHT31;53349;53.538;8.584;2023-02-17T03:19:12;9.05;88.35
66522;SHT31;53349;53.538;8.584;2023-02-17T03:21:52;9.05;88.37
66522;SHT31;53349;53.538;8.584;2023-02-17T03:24:20;9.14;88.39
66522;SHT31;53349;53.538;8.584;2023-02-17T03:26:46;9.16;88.41
66522;SHT31;53349;53.538;8.584;2023-02-17T03:29:11;9.18;88.42
66522;SHT31;53349;53.538;8.584;2023-02-17T03:31:38;9.16;88.38
66522;SHT31;53349;53.538;8.584;2023-02-17T03:34:04;9.24;88.34
66522;SHT31;53349;53.538;8.584;2023-02-17T03:36:30;9.24;88.31
66522;SHT31;53349;53.538;8.584;2023-02-17T03:38:56;9.22;88.25
66522;SHT31;53349;53.538;8.584;2023-02-17T03:41:24;9.21;88.15
66522;SHT31;53349;53.538;8.584;2023-02-17T03:43:50;9.22;88.08
66522;SHT31;53349;53.538;8.584;2023-02-17T03:46:16;9.22;88.10
66522;SHT31;53349;53.538;8.584;2023-02-17T03:48:42;9.24;88.05
66522;SHT31;53349;53.538;8.584;2023-02-17T03:51:16;9.28;87.99
66522;SHT31;53349;53.538;8.584;2023-02-17T03:53:42;9.26;87.91
66522;SHT31;53349;53.538;8.584;2023-02-17T03:56:09;9.25;87.74
66522;SHT31;53349;53.538;8.584;2023-02-17T03:58:35;9.28;87.73
66522;SHT31;53349;53.538;8.584;2023-02-17T04:01:00;9.24;87.66
66522;SHT31;53349;53.538;8.584;2023-02-17T04:03:27;9.25;87.60
66522;SHT31;53349;53.538;8.584;2023-02-17T04:05:54;9.21;87.52
66522;SHT31;53349;53.538;8.584;2023-02-17T04:08:21;9.21;87.51
66522;SHT31;53349;53.538;8.584;2023-02-17T04:10:52;9.22;87.48
66522;SHT31;53349;53.538;8.584;2023-02-17T04:13:19;9.24;87.45
66522;SHT31;53349;53.538;8.584;2023-02-17T04:15:45;9.29;87.46
66522;SHT31;53349;53.538;8.584;2023-02-17T04:18:13;9.32;87.46
66522;SHT31;53349;53.538;8.584;2023-02-17T04:20:40;9.31;87.41
66522;SHT31;53349;53.538;8.584;2023-02-17T04:23:07;9.34;87.39
66522;SHT31;53349;53.538;8.584;2023-02-17T04:25:34;9.34;87.36
66522;SHT31;53349;53.538;8.584;2023-02-17T04:28:00;9.28;87.32
66522;SHT31;53349;53.538;8.584;2023-02-17T04:30:25;9.32;87.27
66522;SHT31;53349;53.538;8.584;2023-02-17T04:32:57;9.35;87.18
66522;SHT31;53349;53.538;8.584;2023-02-17T04:35:23;9.32;87.09
66522;SHT31;53349;53.538;8.584;2023-02-17T04:37:49;9.29;86.98
66522;SHT31;53349;53.538;8.584;2023-02-17T04:40:15;9.31;86.93
66522;SHT31;53349;53.538;8.584;2023-02-17T04:42:42;9.29;86.82
66522;SHT31;53349;53.538;8.584;2023-02-17T04:45:08;9.26;86.80
66522;SHT31;53349;53.538;8.584;2023-02-17T04:47:34;9.29;86.76
66522;SHT31;53349;53.538;8.584;2023-02-17T04:50:00;9.31;86.71
66522;SHT31;53349;53.538;8.584;2023-02-17T04:52:30;9.28;86.69
66522;SHT31;53349;53.538;8.584;2023-02-17T04:54:55;9.31;86.68
66522;SHT31;53349;53.538;8.584;2023-02-17T04:57:22;9.29;86.56
66522;SHT31;53349;53.538;8.584;2023-02-17T04:59:51;9.26;86.51
66522;SHT31;53349;53.538;8.584;2023-02-17T05:02:16;9.29;86.59
66522;SHT31;53349;53.538;8.584;2023-02-17T05:04:42;9.26;86.49
66522;SHT31;53349;53.538;8.584;2023-02-17T05:07:12;9.28;86.49
66522;SHT31;53349;53.538;8.584;2023-02-17T05:09:39;9.26;86.48
66522;SHT31;53349;53.538;8.584;2023-02-17T05:12:06;9.31;86.53
66522;SHT31;53349;53.538;8.584;2023-02-17T05:14:32;9.26;86.48
66522;SHT31;53349;53.538;8.584;2023-02-17T05:16:58;9.31;86.39
66522;SHT31;53349;53.538;8.584;2023-02-17T05:19:23;9.34;86.39
66522;SHT31;53349;53.538;8.584;2023-02-17T05:21:50;9.31;86.19
66522;SHT31;53349;53.538;8.584;2023-02-17T05:24:16;9.31;86.04
66522;SHT31;53349;53.538;8.584;2023-02-17T05:26:42;9.26;85.99
66522;SHT31;53349;53.538;8.584;2023-02-17T05:29:08;9.29;86.17
66522;SHT31;53349;53.538;8.584;2023-02-17T05:31:33;9.31;86.19
66522;SHT31;53349;53.538;8.584;2023-02-17T05:33:59;9.35;86.25
66522;SHT31;53349;53.538;8.584;2023-02-17T05:36:25;9.40;86.29
66522;SHT31;53349;53.538;8.584;2023-02-17T05:38:51;9.40;86.21
66522;SHT31;53349;53.538;8.584;2023-02-17T05:41:17;9.42;86.13
66522;SHT31;53349;53.538;8.584;2023-02-17T05:43:43;9.43;86.07
66522;SHT31;53349;53.538;8.584;2023-02-17T05:46:08;9.42;85.93
66522;SHT31;53349;53.538;8.584;2023-02-17T05:48:35;9.43;85.90
66522;SHT31;53349;53.538;8.584;2023-02-17T05:51:01;9.45;85.80
66522;SHT31;53349;53.538;8.584;2023-02-17T05:53:26;9.42;85.71
66522;SHT31;53349;53.538;8.584;2023-02-17T05:55:52;9.42;85.60
66522;SHT31;53349;53.538;8.584;2023-02-17T05:58:17;9.42;85.44
66522;SHT31;53349;53.538;8.584;2023-02-17T06:00:44;9.40;85.38
66522;SHT31;53349;53.538;8.584;2023-02-17T06:03:11;9.42;85.33
66522;SHT31;53349;53.538;8.584;2023-02-17T06:05:37;9.39;85.24
66522;SHT31;53349;53.538;8.584;2023-02-17T06:08:04;9.39;85.23
66522;SHT31;53349;53.538;8.584;2023-02-17T06:10:29;9.42;85.23
66522;SHT31;53349;53.538;8.584;2023-02-17T06:12:56;9.43;85.28
66522;SHT31;53349;53.538;8.584;2023-02-17T06:15:22;9.42;85.26
66522;SHT31;53349;53.538;8.584;2023-02-17T06:17:47;9.40;85.35
66522;SHT31;53349;53.538;8.584;2023-02-17T06:20:14;9.40;85.35
66522;SHT31;53349;53.538;8.584;2023-02-17T06:22:40;9.34;85.46
66522;SHT31;53349;53.538;8.584;2023-02-17T06:25:06;9.26;85.60
66522;SHT31;53349;53.538;8.584;2023-02-17T06:27:31;9.28;85.84
66522;SHT31;53349;53.538;8.584;2023-02-17T06:29:56;9.26;85.97
66522;SHT31;53349;53.538;8.584;2023-02-17T06:32:23;9.25;86.16
66522;SHT31;53349;53.538;8.584;2023-02-17T06:34:50;9.24;86.25
66522;SHT31;53349;53.538;8.584;2023-02-17T06:37:18;9.24;86.29
66522;SHT31;53349;53.538;8.584;2023-02-17T06:39:47;9.24;86.31
66522;SHT31;53349;53.538;8.584;2023-02-17T06:42:16;9.25;86.28
66522;SHT31;53349;53.538;8.584;2023-02-17T06:44:42;9.25;86.14
66522;SHT31;53349;53.538;8.584;2023-02-17T06:47:07;9.26;86.09
66522;SHT31;53349;53.538;8.584;2023-02-17T06:49:32;9.25;86.01
66522;SHT31;53349;53.538;8.584;2023-02-17T06:51:57;9.21;85.85
66522;SHT31;53349;53.538;8.584;2023-02-17T06:54:23;9.21;85.84
66522;SHT31;53349;53.538;8.584;2023-02-17T06:56:48;9.22;85.68
66522;SHT31;53349;53.538;8.584;2023-02-17T06:59:15;9.19;85.69
66522;SHT31;53349;53.538;8.584;2023-02-17T07:01:41;9.18;85.49
66522;SHT31;53349;53.538;8.584;2023-02-17T07:04:06;9.22;85.45
66522;SHT31;53349;53.538;8.584;2023-02-17T07:06:33;9.22;85.38
66522;SHT31;53349;53.538;8.584;2023-02-17T07:09:00;9.24;85.43
66522;SHT31;53349;53.538;8.584;2023-02-17T07:11:34;9.28;85.41
66522;SHT31;53349;53.538;8.584;2023-02-17T07:14:00;9.31;85.39
66522;SHT31;53349;53.538;8.584;2023-02-17T07:16:27;9.32;85.18
66522;SHT31;53349;53.538;8.584;2023-02-17T07:18:52;9.32;85.11
66522;SHT31;53349;53.538;8.584;2023-02-17T07:21:18;9.31;85.04
66522;SHT31;53349;53.538;8.584;2023-02-17T07:23:44;9.31;85.12
66522;SHT31;53349;53.538;8.584;2023-02-17T07:26:10;9.34;85.22
66522;SHT31;53349;53.538;8.584;2023-02-17T07:28:37;9.35;85.29
66522;SHT31;53349;53.538;8.584;2023-02-17T07:31:10;9.34;85.28
66522;SHT31;53349;53.538;8.584;2023-02-17T07:33:36;9.35;85.34
66522;SHT31;53349;53.538;8.584;2023-02-17T07:36:06;9.35;85.28
66522;SHT31;53349;53.538;8.584;2023-02-17T07:38:31;9.32;85.34
66522;SHT31;53349;53.538;8.584;2023-02-17T07:41:06;9.34;85.34
66522;SHT31;53349;53.538;8.584;2023-02-17T07:43:33;9.31;85.14
66522;SHT31;53349;53.538;8.584;2023-02-17T07:46:07;9.31;85.39
66522;SHT31;53349;53.538;8.584;2023-02-17T07:48:33;9.25;85.49
66522;SHT31;53349;53.538;8.584;2023-02-17T07:51:07;9.26;85.73
66522;SHT31;53349;53.538;8.584;2023-02-17T07:53:37;9.28;85.92
66522;SHT31;53349;53.538;8.584;2023-02-17T07:56:08;9.26;85.93
66522;SHT31;53349;53.538;8.584;2023-02-17T07:58:35;9.26;86.00
66522;SHT31;53349;53.538;8.584;2023-02-17T08:01:18;9.28;86.08
66522;SHT31;53349;53.538;8.584;2023-02-17T08:03:45;9.26;86.00
66522;SHT31;53349;53.538;8.584;2023-02-17T08:06:13;9.26;85.97
66522;SHT31;53349;53.538;8.584;2023-02-17T08:08:45;9.28;86.04
66522;SHT31;53349;53.538;8.584;2023-02-17T08:11:14;9.26;86.15
66522;SHT31;53349;53.538;8.584;2023-02-17T08:13:40;9.26;86.28
66522;SHT31;53349;53.538;8.584;2023-02-17T08:16:05;9.26;86.39
66522;SHT31;53349;53.538;8.584;2023-02-17T08:18:33;9.26;86.59
66522;SHT31;53349;53.538;8.584;2023-02-17T08:21:00;9.28;86.81
66522;SHT31;53349;53.538;8.584;2023-02-17T08:23:26;9.31;86.88
66522;SHT31;53349;53.538;8.584;2023-02-17T08:25:56;9.34;86.94
66522;SHT31;53349;53.538;8.584;2023-02-17T08:28:22;9.32;86.94
66522;SHT31;53349;53.538;8.584;2023-02-17T08:30:56;9.31;86.97
66522;SHT31;53349;53.538;8.584;2023-02-17T08:33:21;9.40;87.05
66522;SHT31;53349;53.538;8.584;2023-02-17T08:35:46;9.47;87.02
66522;SHT31;53349;53.538;8.584;2023-02-17T08:38:14;9.46;86.82
66522;SHT31;53349;53.538;8.584;2023-02-17T08:40:39;9.49;86.77
66522;SHT31;53349;53.538;8.584;2023-02-17T08:43:08;9.52;86.59
66522;SHT31;53349;53.538;8.584;2023-02-17T08:45:34;9.55;86.35
66522;SHT31;53349;53.538;8.584;2023-02-17T08:47:59;9.57;86.24
66522;SHT31;53349;53.538;8.584;2023-02-17T08:50:25;9.57;86.23
66522;SHT31;53349;53.538;8.584;2023-02-17T08:52:50;9.59;86.11
66522;SHT31;53349;53.538;8.584;2023-02-17T08:55:19;9.57;86.00
66522;SHT31;53349;53.538;8.584;2023-02-17T08:57:44;9.56;86.01
66522;SHT31;53349;53.538;8.584;2023-02-17T09:00:11;9.55;85.96
66522;SHT31;53349;53.538;8.584;2023-02-17T09:02:36;9.53;86.02
66522;SHT31;53349;53.538;8.584;2023-02-17T09:05:06;9.52;86.01
66522;SHT31;53349;53.538;8.584;2023-02-17T09:07:32;9.52;86.22
66522;SHT31;53349;53.538;8.584;2023-02-17T09:09:57;9.55;86.40
66522;SHT31;53349;53.538;8.584;2023-02-17T09:12:22;9.56;86.45
66522;SHT31;53349;53.538;8.584;2023-02-17T09:14:47;9.59;86.58
66522;SHT31;53349;53.538;8.584;2023-02-17T09:17:14;9.63;86.57
66522;SHT31;53349;53.538;8.584;2023-02-17T09:19:40;9.67;86.57
66522;SHT31;53349;53.538;8.584;2023-02-17T09:22:05;9.73;86.61
66522;SHT31;53349;53.538;8.584;2023-02-17T09:24:32;9.76;86.63
66522;SHT31;53349;53.538;8.584;2023-02-17T09:26:58;9.82;86.71
66522;SHT31;53349;53.538;8.584;2023-02-17T09:29:30;9.83;86.73
66522;SHT31;53349;53.538;8.584;2023-02-17T09:31:55;9.87;86.74
66522;SHT31;53349;53.538;8.584;2023-02-17T09:34:23;9.91;86.70
66522;SHT31;53349;53.538;8.584;2023-02-17T09:36:49;9.93;86.73
66522;SHT31;53349;53.538;8.584;2023-02-17T09:39:15;9.91;86.62
66522;SHT31;53349;53.538;8.584;2023-02-17T09:41:50;9.94;86.75
66522;SHT31;53349;53.538;8.584;2023-02-17T09:44:32;9.98;86.87
66522;SHT31;53349;53.538;8.584;2023-02-17T09:47:08;9.97;86.75
66522;SHT31;53349;53.538;8.584;2023-02-17T09:49:43;10.00;86.84
66522;SHT31;53349;53.538;8.584;2023-02-17T09:55:02;10.04;86.95
66522;SHT31;53349;53.538;8.584;2023-02-17T09:57:33;10.04;86.96
66522;SHT31;53349;53.538;8.584;2023-02-17T10:00:07;10.10;87.05
66522;SHT31;53349;53.538;8.584;2023-02-17T10:05:07;10.11;86.94
66522;SHT31;53349;53.538;8.584;2023-02-17T10:07:45;10.17;86.94
66522;SHT31;53349;53.538;8.584;2023-02-17T10:10:52;10.15;86.90
66522;SHT31;53349;53.538;8.584;2023-02-17T10:13:21;10.14;86.90
66522;SHT31;53349;53.538;8.584;2023-02-17T10:15:52;10.15;86.86
66522;SHT31;53349;53.538;8.584;2023-02-17T10:18:19;10.17;86.81
66522;SHT31;53349;53.538;8.584;2023-02-17T10:20:51;10.17;86.74
66522;SHT31;53349;53.538;8.584;2023-02-17T10:23:27;10.17;86.66
66522;SHT31;53349;53.538;8.584;2023-02-17T10:31:35;10.21;86.43
66522;SHT31;53349;53.538;8.584;2023-02-17T10:34:04;10.20;86.30
66522;SHT31;53349;53.538;8.584;2023-02-17T10:39:33;10.30;86.07
66522;SHT31;53349;53.538;8.584;2023-02-17T10:42:03;10.30;85.88
66522;SHT31;53349;53.538;8.584;2023-02-17T10:44:30;10.33;85.80
66522;SHT31;53349;53.538;8.584;2023-02-17T10:47:01;10.33;85.56
66522;SHT31;53349;53.538;8.584;2023-02-17T10:49:30;10.34;85.48
66522;SHT31;53349;53.538;8.584;2023-02-17T10:52:02;10.38;85.38
66522;SHT31;53349;53.538;8.584;2023-02-17T10:54:37;10.40;85.17
66522;SHT31;53349;53.538;8.584;2023-02-17T10:57:07;10.48;85.03
66522;SHT31;53349;53.538;8.584;2023-02-17T10:59:38;10.49;84.90
66522;SHT31;53349;53.538;8.584;2023-02-17T11:02:20;10.48;84.67
66522;SHT31;53349;53.538;8.584;2023-02-17T11:04:49;10.52;84.58
66522;SHT31;53349;53.538;8.584;2023-02-17T11:07:18;10.55;84.44
66522;SHT31;53349;53.538;8.584;2023-02-17T11:10:00;10.56;84.20
66522;SHT31;53349;53.538;8.584;2023-02-17T11:12:33;10.61;84.13
66522;SHT31;53349;53.538;8.584;2023-02-17T11:15:21;10.59;83.94
66522;SHT31;53349;53.538;8.584;2023-02-17T11:17:49;10.59;84.04
66522;SHT31;53349;53.538;8.584;2023-02-17T11:22:48;10.59;83.89
66522;SHT31;53349;53.538;8.584;2023-02-17T11:25:26;10.59;83.92
66522;SHT31;53349;53.538;8.584;2023-02-17T11:27:55;10.58;83.82
66522;SHT31;53349;53.538;8.584;2023-02-17T11:30:22;10.62;83.92
66522;SHT31;53349;53.538;8.584;2023-02-17T11:32:48;10.66;83.78
66522;SHT31;53349;53.538;8.584;2023-02-17T11:38:02;10.71;83.60
66522;SHT31;53349;53.538;8.584;2023-02-17T11:40:31;10.75;83.48
66522;SHT31;53349;53.538;8.584;2023-02-17T11:42:58;10.69;83.42
66522;SHT31;53349;53.538;8.584;2023-02-17T11:45:32;10.73;83.39
66522;SHT31;53349;53.538;8.584;2023-02-17T11:50:49;10.69;83.40
66522;SHT31;53349;53.538;8.584;2023-02-17T11:56:18;10.71;83.40
66522;SHT31;53349;53.538;8.584;2023-02-17T12:04:52;10.65;83.79
66522;SHT31;53349;53.538;8.584;2023-02-17T12:10:10;10.62;83.85
66522;SHT31;53349;53.538;8.584;2023-02-17T12:18:48;10.59;83.68
66522;SHT31;53349;53.538;8.584;2023-02-17T12:24:40;10.59;83.59
66522;SHT31;53349;53.538;8.584;2023-02-17T12:35:39;10.64;83.21
66522;SHT31;53349;53.538;8.584;2023-02-17T12:38:17;10.68;83.23
66522;SHT31;53349;53.538;8.584;2023-02-17T12:41:10;10.71;83.11
66522;SHT31;53349;53.538;8.584;2023-02-17T12:43:43;10.73;82.98
66522;SHT31;53349;53.538;8.584;2023-02-17T12:46:23;10.72;82.78
66522;SHT31;53349;53.538;8.584;2023-02-17T12:51:28;10.76;82.55
66522;SHT31;53349;53.538;8.584;2023-02-17T12:54:15;10.77;82.45
66522;SHT31;53349;53.538;8.584;2023-02-17T12:59:48;10.86;82.31
66522;SHT31;53349;53.538;8.584;2023-02-17T13:02:20;10.85;82.11
66522;SHT31;53349;53.538;8.584;2023-02-17T13:04:56;10.85;82.11
66522;SHT31;53349;53.538;8.584;2023-02-17T13:07:43;10.91;81.89
66522;SHT31;53349;53.538;8.584;2023-02-17T13:10:38;10.86;81.77
66522;SHT31;53349;53.538;8.584;2023-02-17T13:13:38;10.85;81.73
66522;SHT31;53349;53.538;8.584;2023-02-17T13:18:35;10.83;81.64
66522;SHT31;53349;53.538;8.584;2023-02-17T13:24:00;10.88;81.43
66522;SHT31;53349;53.538;8.584;2023-02-17T13:26:43;10.93;81.43
66522;SHT31;53349;53.538;8.584;2023-02-17T13:31:53;11.00;81.02
66522;SHT31;53349;53.538;8.584;2023-02-17T13:34:25;11.03;80.71
66522;SHT31;53349;53.538;8.584;2023-02-17T13:36:52;11.06;80.37
66522;SHT31;53349;53.538;8.584;2023-02-17T13:39:47;11.19;80.01
66522;SHT31;53349;53.538;8.584;2023-02-17T13:42:42;11.28;79.44
66522;SHT31;53349;53.538;8.584;2023-02-17T13:47:53;11.40;78.21
66522;SHT31;53349;53.538;8.584;2023-02-17T13:50:45;11.41;77.88
66522;SHT31;53349;53.538;8.584;2023-02-17T13:53:28;11.43;77.63
66522;SHT31;53349;53.538;8.584;2023-02-17T13:58:32;11.41;77.77
66522;SHT31;53349;53.538;8.584;2023-02-17T14:00:59;11.41;78.08
66522;SHT31;53349;53.538;8.584;2023-02-17T14:03:51;11.51;77.04
66522;SHT31;53349;53.538;8.584;2023-02-17T14:06:34;11.58;76.10
66522;SHT31;53349;53.538;8.584;2023-02-17T14:11:46;11.58;75.97
66522;SHT31;53349;53.538;8.584;2023-02-17T14:14:11;11.51;75.60
66522;SHT31;53349;53.538;8.584;2023-02-17T14:16:40;11.43;73.52
66522;SHT31;53349;53.538;8.584;2023-02-17T14:19:14;11.41;71.15
66522;SHT31;53349;53.538;8.584;2023-02-17T14:21:42;11.37;71.72
66522;SHT31;53349;53.538;8.584;2023-02-17T14:24:40;11.34;71.57
66522;SHT31;53349;53.538;8.584;2023-02-17T14:27:08;11.33;71.66
66522;SHT31;53349;53.538;8.584;2023-02-17T14:29:46;11.26;71.67
66522;SHT31;53349;53.538;8.584;2023-02-17T14:32:27;11.23;70.46
66522;SHT31;53349;53.538;8.584;2023-02-17T14:35:14;11.13;70.91
66522;SHT31;53349;53.538;8.584;2023-02-17T14:37:42;11.07;70.99
66522;SHT31;53349;53.538;8.584;2023-02-17T14:40:21;11.03;71.65
66522;SHT31;53349;53.538;8.584;2023-02-17T14:42:48;10.99;71.74
66522;SHT31;53349;53.538;8.584;2023-02-17T14:45:15;10.93;72.19
66522;SHT31;53349;53.538;8.584;2023-02-17T14:47:42;10.91;72.42
66522;SHT31;53349;53.538;8.584;2023-02-17T14:50:08;10.83;71.92
66522;SHT31;53349;53.538;8.584;2023-02-17T14:52:40;10.82;71.23
66522;SHT31;53349;53.538;8.584;2023-02-17T14:55:15;10.76;71.08
66522;SHT31;53349;53.538;8.584;2023-02-17T14:57:41;10.71;71.06
66522;SHT31;53349;53.538;8.584;2023-02-17T15:00:12;10.69;71.24
66522;SHT31;53349;53.538;8.584;2023-02-17T15:02:38;10.64;70.89
66522;SHT31;53349;53.538;8.584;2023-02-17T15:05:03;10.64;70.16
66522;SHT31;53349;53.538;8.584;2023-02-17T15:07:29;10.59;70.08
66522;SHT31;53349;53.538;8.584;2023-02-17T15:09:57;10.56;70.42
66522;SHT31;53349;53.538;8.584;2023-02-17T15:12:22;10.49;70.27
66522;SHT31;53349;53.538;8.584;2023-02-17T15:14:47;10.45;70.27
66522;SHT31;53349;53.538;8.584;2023-02-17T15:17:14;10.42;70.30
66522;SHT31;53349;53.538;8.584;2023-02-17T15:19:40;10.40;70.32
66522;SHT31;53349;53.538;8.584;2023-02-17T15:22:11;10.37;70.32
66522;SHT31;53349;53.538;8.584;2023-02-17T15:24:37;10.34;70.21
66522;SHT31;53349;53.538;8.584;2023-02-17T15:27:03;10.28;70.03
66522;SHT31;53349;53.538;8.584;2023-02-17T15:29:29;10.20;70.36
66522;SHT31;53349;53.538;8.584;2023-02-17T15:32:00;10.17;69.95
66522;SHT31;53349;53.538;8.584;2023-02-17T15:34:31;10.15;69.31
66522;SHT31;53349;53.538;8.584;2023-02-17T15:36:59;10.10;68.99
66522;SHT31;53349;53.538;8.584;2023-02-17T15:39:28;10.08;69.14
66522;SHT31;53349;53.538;8.584;2023-02-17T15:41:55;10.01;68.56
66522;SHT31;53349;53.538;8.584;2023-02-17T15:44:27;9.94;68.30
66522;SHT31;53349;53.538;8.584;2023-02-17T15:46:54;9.90;68.20
66522;SHT31;53349;53.538;8.584;2023-02-17T15:49:20;9.87;68.31
66522;SHT31;53349;53.538;8.584;2023-02-17T15:51:47;9.82;68.39
66522;SHT31;53349;53.538;8.584;2023-02-17T15:54:12;9.82;68.20
66522;SHT31;53349;53.538;8.584;2023-02-17T15:56:50;9.76;68.26
66522;SHT31;53349;53.538;8.584;2023-02-17T15:59:21;9.70;68.51
66522;SHT31;53349;53.538;8.584;2023-02-17T16:01:47;9.70;68.50
66522;SHT31;53349;53.538;8.584;2023-02-17T16:04:14;9.65;68.33
66522;SHT31;53349;53.538;8.584;2023-02-17T16:06:40;9.60;68.29
66522;SHT31;53349;53.538;8.584;2023-02-17T16:09:08;9.57;68.31
66522;SHT31;53349;53.538;8.584;2023-02-17T16:11:36;9.53;68.47
66522;SHT31;53349;53.538;8.584;2023-02-17T16:14:04;9.49;68.61
66522;SHT31;53349;53.538;8.584;2023-02-17T16:16:32;9.47;68.89
66522;SHT31;53349;53.538;8.584;2023-02-17T16:19:17;9.42;68.62
66522;SHT31;53349;53.538;8.584;2023-02-17T16:21:42;9.39;68.48
66522;SHT31;53349;53.538;8.584;2023-02-17T16:24:11;9.36;68.59
66522;SHT31;53349;53.538;8.584;2023-02-17T16:26:37;9.34;68.62
66522;SHT31;53349;53.538;8.584;2023-02-17T16:29:12;9.31;68.37
66522;SHT31;53349;53.538;8.584;2023-02-17T16:31:39;9.25;68.51
66522;SHT31;53349;53.538;8.584;2023-02-17T16:34:06;9.24;68.33
66522;SHT31;53349;53.538;8.584;2023-02-17T16:36:33;9.18;68.37
66522;SHT31;53349;53.538;8.584;2023-02-17T16:39:02;9.14;68.61
66522;SHT31;53349;53.538;8.584;2023-02-17T16:41:29;9.12;68.38
66522;SHT31;53349;53.538;8.584;2023-02-17T16:43:54;9.12;68.54
66522;SHT31;53349;53.538;8.584;2023-02-17T16:46:31;9.45;72.23
66522;SHT31;53349;53.538;8.584;2023-02-17T16:48:59;9.46;68.35
66522;SHT31;53349;53.538;8.584;2023-02-17T16:51:25;9.28;67.98
66522;SHT31;53349;53.538;8.584;2023-02-17T16:53:50;9.19;68.26
66522;SHT31;53349;53.538;8.584;2023-02-17T16:56:26;9.07;68.05
66522;SHT31;53349;53.538;8.584;2023-02-17T16:58:54;9.05;68.29
66522;SHT31;53349;53.538;8.584;2023-02-17T17:01:19;9.03;68.43
66522;SHT31;53349;53.538;8.584;2023-02-17T17:03:53;8.97;68.41
66522;SHT31;53349;53.538;8.584;2023-02-17T17:06:22;8.92;68.57
66522;SHT31;53349;53.538;8.584;2023-02-17T17:08:55;8.87;68.77
66522;SHT31;53349;53.538;8.584;2023-02-17T17:11:39;8.81;68.74
66522;SHT31;53349;53.538;8.584;2023-02-17T17:14:05;8.78;68.81
66522;SHT31;53349;53.538;8.584;2023-02-17T17:16:34;8.78;68.74
66522;SHT31;53349;53.538;8.584;2023-02-17T17:19:03;8.75;69.00
66522;SHT31;53349;53.538;8.584;2023-02-17T17:21:54;8.77;68.73
66522;SHT31;53349;53.538;8.584;2023-02-17T17:27:18;8.73;68.60
66522;SHT31;53349;53.538;8.584;2023-02-17T17:30:01;8.67;69.00
66522;SHT31;53349;53.538;8.584;2023-02-17T17:32:26;8.67;68.98
66522;SHT31;53349;53.538;8.584;2023-02-17T17:34:55;8.63;68.50